Time;durP1;ratioP1;P1;durP2;ratioP2;P2;SDS_P1;SDS_P2;PMS_P1;PMS_P2;Temp;Humidity;BMP_temperature;BMP_pressure;BME280_temperature;BME280_humidity;BME280_pressure;Samples;Min_cycle;Max_cycle;Signal;HPM_P1;HPM_P2
2021/12/25 00:02:06;;;;;;;0.82;0.40;;;22.10;35.20;;;;;;5053237;28;20024;-58
2021/12/25 00:04:32;;;;;;;0.47;0.47;;;22.10;35.20;;;;;;5053411;28;20037;-58
2021/12/25 00:06:58;;;;;;;1.08;0.60;;;22.10;35.20;;;;;;5052666;28;20025;-58
2021/12/25 00:09:25;;;;;;;0.82;0.50;;;22.10;35.10;;;;;;5037566;28;20116;-55
2021/12/25 00:11:51;;;;;;;0.47;0.40;;;22.10;35.10;;;;;;5040779;28;20044;-58
2021/12/25 00:14:17;;;;;;;0.50;0.50;;;22.10;35.10;;;;;;5054460;28;20116;-56
2021/12/25 00:16:43;;;;;;;1.13;0.85;;;22.10;35.00;;;;;;5054650;28;20024;-58
2021/12/25 00:19:09;;;;;;;0.88;0.57;;;22.10;35.00;;;;;;5053904;28;20094;-58
2021/12/25 00:21:35;;;;;;;0.82;0.40;;;22.00;34.90;;;;;;5051253;28;20456;-55
2021/12/25 00:24:02;;;;;;;0.40;0.40;;;22.00;34.90;;;;;;5036856;28;20397;-56
2021/12/25 00:32:09;;;;;;;0.30;0.30;;;22.00;34.90;;;;;;5045142;28;20029;-56
2021/12/25 00:34:37;;;;;;;0.30;0.30;;;22.00;34.90;;;;;;5027848;28;20033;-57
2021/12/25 00:37:04;;;;;;;0.50;0.50;;;22.00;34.80;;;;;;5035058;28;20025;-58
2021/12/25 00:39:31;;;;;;;0.77;0.52;;;22.00;34.80;;;;;;5044440;28;20095;-58
2021/12/25 00:41:57;;;;;;;0.50;0.40;;;21.90;34.70;;;;;;5041626;28;20053;-54
2021/12/25 00:44:23;;;;;;;0.57;0.40;;;21.90;34.60;;;;;;5051685;28;20025;-57
2021/12/25 00:46:50;;;;;;;1.20;0.52;;;21.90;34.60;;;;;;5045787;28;20100;-56
2021/12/25 00:49:15;;;;;;;0.38;0.38;;;21.90;34.60;;;;;;5044880;28;20313;-58
2021/12/25 00:51:41;;;;;;;0.60;0.38;;;21.90;34.60;;;;;;5031411;28;20108;-53
2021/12/25 00:54:07;;;;;;;0.40;0.40;;;21.90;34.50;;;;;;5045624;28;20059;-51
2021/12/25 00:56:33;;;;;;;0.47;0.38;;;21.90;34.50;;;;;;5044960;28;20056;-55
2021/12/25 00:58:59;;;;;;;0.38;0.30;;;21.90;34.50;;;;;;5049644;28;20450;-57
2021/12/25 01:01:25;;;;;;;0.40;0.40;;;21.90;34.50;;;;;;5034719;28;20456;-58
2021/12/25 01:03:50;;;;;;;0.50;0.30;;;21.90;34.40;;;;;;5053584;28;20063;-52
2021/12/25 01:06:16;;;;;;;0.85;0.20;;;21.90;34.40;;;;;;5050026;28;20044;-54
2021/12/25 01:08:43;;;;;;;0.50;0.43;;;21.80;34.30;;;;;;5025837;28;20410;-59
2021/12/25 01:11:09;;;;;;;0.40;0.30;;;21.90;34.30;;;;;;5031046;28;20119;-59
2021/12/25 01:13:40;;;;;;;0.45;0.40;;;21.80;34.20;;;;;;5032202;28;20024;-60
2021/12/25 01:29:49;;;;;;;0.40;0.40;;;21.70;33.90;;;;;;5037449;28;20021;-57
2021/12/25 01:49:49;;;;;;;0.30;0.30;;;21.70;33.60;;;;;;5027472;28;20348;-59
2021/12/25 01:52:15;;;;;;;0.55;0.40;;;21.70;33.60;;;;;;5020828;28;20551;-55
2021/12/25 01:54:41;;;;;;;0.60;0.40;;;21.70;33.50;;;;;;5041083;28;20037;-54
2021/12/25 01:57:08;;;;;;;0.40;0.40;;;21.70;33.50;;;;;;5037928;28;20029;-58
2021/12/25 01:59:34;;;;;;;0.50;0.50;;;21.70;33.40;;;;;;5023635;28;20025;-57
2021/12/25 02:02:00;;;;;;;0.40;0.40;;;21.70;33.40;;;;;;5030035;28;20035;-55
2021/12/25 02:04:26;;;;;;;0.50;0.50;;;21.60;33.30;;;;;;5037987;28;20041;-56
2021/12/25 02:06:52;;;;;;;0.52;0.52;;;21.60;33.30;;;;;;5036542;28;20412;-57
2021/12/25 02:09:18;;;;;;;0.77;0.60;;;21.60;33.20;;;;;;5029595;28;20025;-55
2021/12/25 02:11:45;;;;;;;0.80;0.60;;;21.60;33.20;;;;;;5024288;28;20459;-55
2021/12/25 02:14:11;;;;;;;0.50;0.50;;;21.60;33.20;;;;;;5039585;28;20025;-60
2021/12/25 02:16:51;;;;;;;0.65;0.60;;;21.60;33.30;;;;;;5024356;28;20032;-58
2021/12/25 02:19:47;;;;;;;1.10;0.60;;;21.60;33.30;;;;;;5038993;28;20025;-60
2021/12/25 02:22:09;;;;;;;0.80;0.65;;;21.60;33.30;;;;;;5037310;28;20427;-55
2021/12/25 02:24:36;;;;;;;1.33;0.70;;;21.60;33.20;;;;;;5035875;28;20413;-53
2021/12/25 02:27:03;;;;;;;0.60;0.60;;;21.60;33.20;;;;;;5032155;28;20111;-55
2021/12/25 02:29:30;;;;;;;0.75;0.75;;;21.60;33.10;;;;;;5021744;28;20021;-57
2021/12/25 02:32:00;;;;;;;0.70;0.70;;;21.60;33.10;;;;;;5030735;28;20111;-59
2021/12/25 02:34:28;;;;;;;0.60;0.60;;;21.60;33.00;;;;;;5038297;28;20025;-56
2021/12/25 02:36:54;;;;;;;0.70;0.70;;;21.60;33.00;;;;;;5039040;28;20057;-55
2021/12/25 02:39:20;;;;;;;0.70;0.68;;;21.50;32.90;;;;;;5038089;28;20467;-54
2021/12/25 02:41:46;;;;;;;0.70;0.70;;;21.60;32.90;;;;;;5030029;28;20029;-56
2021/12/25 02:44:13;;;;;;;0.77;0.63;;;21.60;32.90;;;;;;5039050;28;20094;-55
2021/12/25 02:46:43;;;;;;;0.93;0.82;;;21.60;32.80;;;;;;5033158;28;20021;-58
2021/12/25 02:49:13;;;;;;;0.77;0.70;;;21.50;32.80;;;;;;5025896;28;20039;-57
2021/12/25 02:51:45;;;;;;;0.77;0.77;;;21.50;32.70;;;;;;5029097;28;20025;-57
2021/12/25 02:54:11;;;;;;;1.00;0.70;;;21.50;32.70;;;;;;5038278;28;20061;-56
2021/12/25 02:56:38;;;;;;;0.68;0.68;;;21.50;32.70;;;;;;5021653;28;20021;-55
2021/12/25 02:59:03;;;;;;;0.77;0.77;;;21.50;32.60;;;;;;5035887;28;20432;-57
2021/12/25 03:01:29;;;;;;;0.75;0.73;;;21.50;32.60;;;;;;5026744;28;20040;-59
2021/12/25 03:03:55;;;;;;;1.02;0.80;;;21.50;32.60;;;;;;5045663;28;20060;-54
2021/12/25 03:06:23;;;;;;;0.70;0.70;;;21.50;32.50;;;;;;5056524;28;20033;-57
2021/12/25 03:08:49;;;;;;;1.08;0.90;;;21.50;32.60;;;;;;5030059;28;20033;-57
2021/12/25 03:11:16;;;;;;;0.98;0.88;;;21.50;32.50;;;;;;5037686;28;20024;-50
2021/12/25 03:13:57;;;;;;;0.80;0.80;;;21.50;33.10;;;;;;5050976;28;20028;-56
2021/12/25 03:16:25;;;;;;;1.25;0.90;;;21.50;32.40;;;;;;5034712;28;20032;-55
2021/12/25 03:18:53;;;;;;;1.27;0.80;;;21.40;32.40;;;;;;5037530;28;20098;-58
2021/12/25 03:21:20;;;;;;;0.75;0.70;;;21.40;32.40;;;;;;5037903;28;20028;-53
2021/12/25 03:23:48;;;;;;;1.85;0.90;;;21.40;32.40;;;;;;5024804;28;20029;-55
2021/12/25 03:26:14;;;;;;;1.13;0.85;;;21.40;32.40;;;;;;5018171;28;20021;-55
2021/12/25 03:28:43;;;;;;;1.45;1.10;;;21.40;32.40;;;;;;5027381;28;20021;-61
2021/12/25 03:31:16;;;;;;;1.00;0.85;;;21.40;32.40;;;;;;5036247;28;20114;-54
2021/12/25 03:33:48;;;;;;;1.70;1.10;;;21.40;32.30;;;;;;5036922;28;20036;-57
2021/12/25 03:36:14;;;;;;;0.98;0.77;;;21.40;32.30;;;;;;5019619;28;20036;-53
2021/12/25 03:38:41;;;;;;;1.10;1.00;;;21.40;32.20;;;;;;5036558;28;20076;-58
2021/12/25 03:41:07;;;;;;;1.20;0.82;;;21.40;32.20;;;;;;5032233;28;20025;-55
2021/12/25 03:43:34;;;;;;;1.52;0.90;;;21.40;32.20;;;;;;5049228;28;20051;-56
2021/12/25 03:46:01;;;;;;;1.45;1.02;;;21.40;32.20;;;;;;5022415;28;20031;-56
2021/12/25 03:59:10;;;;;;;1.20;0.70;;;21.30;32.00;;;;;;4989499;28;20684;-58
2021/12/25 04:06:35;;;;;;;0.82;0.70;;;21.30;31.90;;;;;;5035037;28;20352;-57
2021/12/25 04:09:09;;;;;;;0.88;0.60;;;21.30;31.90;;;;;;5017593;28;20037;-57
2021/12/25 04:11:35;;;;;;;1.15;0.85;;;21.30;31.80;;;;;;5035389;28;20025;-55
2021/12/25 04:14:02;;;;;;;1.33;0.82;;;21.30;31.80;;;;;;5020603;28;20033;-57
2021/12/25 04:16:29;;;;;;;0.80;0.60;;;21.30;31.80;;;;;;5034728;28;20029;-55
2021/12/25 04:18:56;;;;;;;2.25;0.60;;;21.30;31.80;;;;;;5036870;28;20285;-59
2021/12/25 04:21:23;;;;;;;0.95;0.50;;;21.30;31.70;;;;;;5037134;28;20329;-58
2021/12/25 04:23:50;;;;;;;1.00;0.80;;;21.30;31.70;;;;;;5018277;28;20025;-55
2021/12/25 04:26:16;;;;;;;0.70;0.60;;;21.20;31.60;;;;;;5036857;28;20068;-55
2021/12/25 04:28:58;;;;;;;0.70;0.60;;;21.30;31.70;;;;;;5039397;28;20049;-59
2021/12/25 04:32:07;;;;;;;0.50;0.50;;;21.20;31.60;;;;;;5019111;28;20079;-54
2021/12/25 04:42:52;;;;;;;0.90;0.43;;;21.20;31.50;;;;;;5035102;28;20032;-60
2021/12/25 04:48:53;;;;;;;1.13;0.60;;;21.20;31.50;;;;;;5025490;28;20444;-58
2021/12/25 05:04:40;;;;;;;0.90;0.50;;;21.10;31.20;;;;;;5011896;28;20049;-59
2021/12/25 05:07:29;;;;;;;;;;;21.10;31.20;;;;;;5040293;28;20415;-59
2021/12/25 05:09:57;;;;;;;0.40;0.28;;;21.00;31.20;;;;;;5033038;28;19915;-59
2021/12/25 05:12:23;;;;;;;0.30;0.30;;;21.10;31.20;;;;;;5038668;28;20037;-56
2021/12/25 05:14:49;;;;;;;0.98;0.30;;;21.10;31.10;;;;;;5023531;28;20468;-55
2021/12/25 05:17:14;;;;;;;0.60;0.47;;;21.10;31.00;;;;;;5039394;28;20033;-57
2021/12/25 05:19:41;;;;;;;0.40;0.40;;;21.10;31.00;;;;;;5038394;28;20017;-57
2021/12/25 05:22:07;;;;;;;0.20;0.20;;;21.00;30.90;;;;;;5027412;28;20048;-55
2021/12/25 05:24:34;;;;;;;0.63;0.35;;;21.10;30.90;;;;;;5035887;28;20435;-57
2021/12/25 05:27:00;;;;;;;0.30;0.25;;;21.10;30.90;;;;;;5040475;28;20351;-59
2021/12/25 05:29:30;;;;;;;0.63;0.25;;;21.10;30.80;;;;;;5039695;28;20059;-57
2021/12/25 05:31:56;;;;;;;0.75;0.30;;;21.00;30.70;;;;;;5038062;28;20029;-52
2021/12/25 05:34:45;;;;;;;0.50;0.30;;;21.10;30.70;;;;;;5020256;28;20064;-58
2021/12/25 05:37:39;;;;;;;0.40;0.30;;;21.00;30.60;;;;;;5025325;28;20073;-51
2021/12/25 05:40:24;;;;;;;0.30;0.28;;;21.00;30.60;;;;;;5032080;28;20053;-58
2021/12/25 05:42:51;;;;;;;0.70;0.30;;;21.00;30.60;;;;;;5036476;28;20029;-60
2021/12/25 05:45:18;;;;;;;0.60;0.30;;;21.00;30.50;;;;;;5029631;28;20082;-59
2021/12/25 05:47:56;;;;;;;0.75;0.40;;;21.00;30.40;;;;;;5039011;28;20086;-59
2021/12/25 05:50:40;;;;;;;0.28;0.20;;;21.00;30.40;;;;;;5038001;28;20112;-58
2021/12/25 05:53:28;;;;;;;0.47;0.20;;;21.00;30.40;;;;;;5023868;28;20439;-59
2021/12/25 05:56:17;;;;;;;0.30;0.20;;;21.00;30.30;;;;;;5015570;28;20052;-58
2021/12/25 05:59:12;;;;;;;;;;;21.00;30.30;;;;;;5024251;28;20037;-56
2021/12/25 06:01:53;;;;;;;0.32;0.10;;;20.90;30.30;;;;;;5052568;28;19916;-58
2021/12/25 06:04:21;;;;;;;0.20;0.20;;;20.90;30.30;;;;;;5037189;28;20037;-58
2021/12/25 06:06:47;;;;;;;0.43;0.20;;;20.90;30.20;;;;;;5051996;28;20459;-58
2021/12/25 06:09:12;;;;;;;0.25;0.17;;;20.90;30.20;;;;;;5025411;28;20024;-57
2021/12/25 06:11:39;;;;;;;0.50;0.22;;;20.90;30.10;;;;;;5051297;28;20036;-53
2021/12/25 06:14:10;;;;;;;0.55;0.20;;;20.90;30.10;;;;;;5035140;28;20456;-55
2021/12/25 06:17:05;;;;;;;0.17;0.17;;;20.90;30.20;;;;;;5033992;28;20030;-56
2021/12/25 06:19:48;;;;;;;0.60;0.30;;;20.90;30.30;;;;;;5019784;28;20028;-53
2021/12/25 06:22:33;;;;;;;0.30;0.30;;;20.90;30.30;;;;;;5055963;28;20044;-57
2021/12/25 06:25:07;;;;;;;0.63;0.20;;;20.90;30.20;;;;;;5038160;28;20415;-58
2021/12/25 06:27:45;;;;;;;0.43;0.40;;;20.90;30.20;;;;;;5020023;28;20029;-57
2021/12/25 06:30:34;;;;;;;0.30;0.20;;;20.90;30.20;;;;;;5028772;28;20084;-53
2021/12/25 06:33:23;;;;;;;0.30;0.30;;;20.90;30.10;;;;;;5004471;28;20037;-60
2021/12/25 06:36:07;;;;;;;0.28;0.20;;;20.90;30.10;;;;;;5045297;28;20102;-58
2021/12/25 06:38:45;;;;;;;0.50;0.30;;;20.90;30.00;;;;;;5030443;28;20108;-55
2021/12/25 06:41:31;;;;;;;0.20;0.20;;;20.90;30.00;;;;;;5034037;28;20450;-58
2021/12/25 06:43:58;;;;;;;0.63;0.28;;;20.80;30.00;;;;;;5034610;28;20013;-59
2021/12/25 06:46:34;;;;;;;0.55;0.40;;;20.90;30.00;;;;;;5038324;28;20336;-59
2021/12/25 06:49:00;;;;;;;0.40;0.30;;;20.80;29.90;;;;;;5023595;28;20074;-60
2021/12/25 06:51:46;;;;;;;0.22;0.20;;;20.80;30.40;;;;;;5054946;28;20433;-57
2021/12/25 06:54:30;;;;;;;;;;;20.80;29.90;;;;;;5054166;28;20421;-56
2021/12/25 06:57:17;;;;;;;0.25;0.20;;;20.80;29.90;;;;;;5050510;28;19927;-60
2021/12/25 06:59:44;;;;;;;0.20;0.20;;;20.80;29.90;;;;;;5026621;28;20028;-56
2021/12/25 07:02:12;;;;;;;0.65;0.40;;;20.80;29.90;;;;;;5037292;28;20040;-55
2021/12/25 07:04:56;;;;;;;0.47;0.30;;;20.80;29.80;;;;;;5043833;28;20063;-57
2021/12/25 07:07:40;;;;;;;0.90;0.30;;;20.80;29.80;;;;;;5037517;28;20493;-55
2021/12/25 07:10:26;;;;;;;0.25;0.20;;;20.70;29.70;;;;;;5035842;28;20063;-55
2021/12/25 07:13:04;;;;;;;0.20;0.20;;;20.80;29.80;;;;;;5032754;28;20021;-56
2021/12/25 07:15:40;;;;;;;0.20;0.20;;;20.80;29.70;;;;;;5023524;28;20096;-55
2021/12/25 07:18:23;;;;;;;0.52;0.30;;;20.70;29.70;;;;;;5038868;28;20198;-60
2021/12/25 07:21:20;;;;;;;0.10;0.10;;;20.70;29.60;;;;;;5028757;28;20041;-57
2021/12/25 07:24:21;;;;;;;0.30;0.10;;;20.80;29.60;;;;;;4986740;28;20210;-57
2021/12/25 07:26:54;;;;;;;0.40;0.22;;;20.70;29.70;;;;;;5008150;28;20033;-59
2021/12/25 07:29:28;;;;;;;0.40;0.20;;;20.80;29.70;;;;;;5038577;28;20069;-56
2021/12/25 07:31:54;;;;;;;0.20;0.20;;;20.70;29.60;;;;;;5043532;28;20052;-53
2021/12/25 07:34:20;;;;;;;0.20;0.20;;;20.70;29.60;;;;;;5054435;28;20032;-55
2021/12/25 07:36:45;;;;;;;0.50;0.10;;;20.70;29.50;;;;;;5055293;28;20435;-55
2021/12/25 07:39:12;;;;;;;0.77;0.30;;;20.70;29.50;;;;;;5051802;28;20032;-54
2021/12/25 07:41:37;;;;;;;0.73;0.30;;;20.70;29.50;;;;;;5041408;28;20028;-59
2021/12/25 07:44:04;;;;;;;0.73;0.20;;;20.70;29.50;;;;;;5033856;28;20032;-58
2021/12/25 07:46:39;;;;;;;1.10;0.25;;;20.70;29.50;;;;;;5052309;28;20118;-57
2021/12/25 07:49:05;;;;;;;0.55;0.22;;;20.70;29.50;;;;;;5042089;28;20033;-57
2021/12/25 07:51:31;;;;;;;0.30;0.13;;;20.70;29.50;;;;;;5048084;28;20039;-57
2021/12/25 07:53:56;;;;;;;0.20;0.10;;;20.70;29.40;;;;;;5054210;28;20033;-59
2021/12/25 07:56:26;;;;;;;0.60;0.30;;;20.70;29.40;;;;;;5053749;28;20340;-57
2021/12/25 07:58:52;;;;;;;0.50;0.30;;;20.70;29.40;;;;;;5055230;28;20033;-58
2021/12/25 08:01:19;;;;;;;0.52;0.30;;;20.70;29.40;;;;;;5041585;28;20055;-56
2021/12/25 08:03:45;;;;;;;1.35;0.30;;;20.70;29.40;;;;;;5038616;28;20041;-57
2021/12/25 08:06:11;;;;;;;1.60;0.30;;;20.70;29.40;;;;;;5039256;28;20082;-58
2021/12/25 08:08:37;;;;;;;0.85;0.30;;;20.70;29.30;;;;;;5045891;28;20029;-59
2021/12/25 08:11:03;;;;;;;0.50;0.32;;;20.70;29.20;;;;;;5049276;28;20013;-57
2021/12/25 08:13:28;;;;;;;0.88;0.30;;;20.70;29.20;;;;;;5047220;28;20036;-60
2021/12/25 08:15:55;;;;;;;0.30;0.20;;;20.80;29.20;;;;;;5026489;28;20033;-59
2021/12/25 08:18:21;;;;;;;0.85;0.30;;;20.90;29.10;;;;;;5054683;28;20089;-57
2021/12/25 08:21:06;;;;;;;;;;;20.90;29.00;;;;;;5053935;28;20039;-58
2021/12/25 08:23:55;;;;;;;2.65;0.20;;;21.00;29.00;;;;;;5054431;28;19931;-60
2021/12/25 08:26:40;;;;;;;0.20;0.20;;;21.10;28.90;;;;;;5043141;28;20091;-60
2021/12/25 08:29:25;;;;;;;1.02;0.30;;;21.20;28.80;;;;;;5052828;28;20087;-59
2021/12/25 08:32:03;;;;;;;0.50;0.20;;;21.30;28.70;;;;;;5053389;28;20037;-58
2021/12/25 08:35:01;;;;;;;0.50;0.20;;;21.40;28.60;;;;;;5051163;28;20032;-59
2021/12/25 08:37:32;;;;;;;0.70;0.30;;;21.50;28.60;;;;;;5033163;28;20083;-59
2021/12/25 08:39:59;;;;;;;0.35;0.30;;;21.60;28.50;;;;;;5054000;28;20021;-60
2021/12/25 08:42:25;;;;;;;0.60;0.30;;;21.70;28.40;;;;;;5036106;28;20103;-57
2021/12/25 08:47:28;;;;;;;1.80;0.20;;;21.80;28.30;;;;;;5054813;28;20057;-54
2021/12/25 08:49:55;;;;;;;0.55;0.25;;;21.90;28.20;;;;;;5052832;28;20033;-59
2021/12/25 08:52:23;;;;;;;0.47;0.20;;;21.90;28.10;;;;;;5044241;28;20033;-58
2021/12/25 08:54:50;;;;;;;0.30;0.20;;;22.00;28.00;;;;;;5049832;28;20029;-56
2021/12/25 08:57:20;;;;;;;0.70;0.30;;;22.10;28.00;;;;;;5036289;28;20103;-58
2021/12/25 08:59:48;;;;;;;0.95;0.20;;;22.10;27.90;;;;;;5050445;28;20024;-53
2021/12/25 09:02:17;;;;;;;0.30;0.20;;;22.20;27.90;;;;;;5049969;28;20025;-54
2021/12/25 09:04:52;;;;;;;1.75;0.20;;;22.20;27.90;;;;;;5051691;28;20383;-58
2021/12/25 09:07:20;;;;;;;2.17;0.22;;;22.30;28.30;;;;;;5021023;28;20036;-52
2021/12/25 09:09:45;;;;;;;1.23;0.20;;;22.30;27.80;;;;;;5039145;28;20114;-55
2021/12/25 09:12:14;;;;;;;0.55;0.30;;;22.40;27.80;;;;;;5042736;28;20029;-58
2021/12/25 09:14:40;;;;;;;0.20;0.20;;;22.50;27.80;;;;;;5034907;28;20029;-55
2021/12/25 09:17:09;;;;;;;0.43;0.28;;;22.50;27.70;;;;;;5040275;28;20099;-55
2021/12/25 09:19:36;;;;;;;0.75;0.20;;;22.50;27.60;;;;;;5035369;28;20033;-51
2021/12/25 09:22:02;;;;;;;0.45;0.30;;;22.60;27.60;;;;;;5040216;28;20039;-57
2021/12/25 09:24:28;;;;;;;0.88;0.38;;;22.60;27.50;;;;;;5037452;28;20029;-54
2021/12/25 09:26:54;;;;;;;0.52;0.30;;;22.60;27.40;;;;;;5041812;28;20076;-55
2021/12/25 09:29:24;;;;;;;0.20;0.20;;;22.70;27.40;;;;;;5051976;28;20442;-59
2021/12/25 09:31:50;;;;;;;0.28;0.22;;;22.70;27.30;;;;;;5043430;28;20033;-54
2021/12/25 09:34:16;;;;;;;0.47;0.20;;;22.70;27.30;;;;;;5051310;28;20305;-56
2021/12/25 09:36:49;;;;;;;0.20;0.20;;;22.80;27.20;;;;;;5046301;28;20083;-57
2021/12/25 09:39:15;;;;;;;0.20;0.10;;;22.80;27.20;;;;;;5031634;28;20032;-56
2021/12/25 09:41:43;;;;;;;0.57;0.22;;;22.80;27.10;;;;;;5053673;28;20035;-54
2021/12/25 09:44:09;;;;;;;0.13;0.13;;;22.90;27.10;;;;;;5051440;28;20038;-54
2021/12/25 09:46:38;;;;;;;0.43;0.20;;;22.90;27.00;;;;;;5052876;28;20029;-55
2021/12/25 09:49:05;;;;;;;0.88;0.20;;;22.90;26.90;;;;;;5054365;28;20080;-56
2021/12/25 09:51:31;;;;;;;0.75;0.32;;;22.90;26.90;;;;;;5051627;28;20313;-56
2021/12/25 09:54:04;;;;;;;0.40;0.20;;;23.00;26.80;;;;;;5044474;28;20111;-58
2021/12/25 09:56:30;;;;;;;0.47;0.10;;;23.00;26.70;;;;;;5025020;28;20075;-59
2021/12/25 09:58:58;;;;;;;0.22;0.10;;;23.00;26.70;;;;;;5039277;28;20267;-55
2021/12/25 10:01:41;;;;;;;0.40;0.17;;;23.10;26.70;;;;;;5039033;28;20408;-55
2021/12/25 10:04:10;;;;;;;0.20;0.10;;;23.20;26.60;;;;;;5053079;28;20448;-54
2021/12/25 10:06:41;;;;;;;0.20;0.15;;;23.10;26.50;;;;;;5043486;28;20337;-53
2021/12/25 10:09:18;;;;;;;0.50;0.20;;;23.20;26.50;;;;;;5058957;28;20059;-54
2021/12/25 10:12:04;;;;;;;0.43;0.20;;;23.20;26.40;;;;;;5044086;28;20017;-52
2021/12/25 10:14:31;;;;;;;0.38;0.30;;;23.20;26.30;;;;;;5056299;28;20039;-54
2021/12/25 10:16:58;;;;;;;0.50;0.20;;;23.10;26.20;;;;;;5056108;28;20118;-59
2021/12/25 10:19:27;;;;;;;0.50;0.20;;;23.10;26.10;;;;;;5049478;28;20025;-56
2021/12/25 10:22:08;;;;;;;0.10;0.10;;;23.10;26.10;;;;;;5043009;28;20022;-53
2021/12/25 10:24:47;;;;;;;0.22;0.20;;;23.10;26.00;;;;;;5043833;28;20056;-52
2021/12/25 10:27:20;;;;;;;0.40;0.20;;;23.10;26.00;;;;;;5050437;28;20040;-54
2021/12/25 10:29:47;;;;;;;0.20;0.20;;;23.00;25.90;;;;;;5045943;28;20364;-57
2021/12/25 10:32:22;;;;;;;0.35;0.20;;;23.00;25.90;;;;;;5033588;28;20763;-53
2021/12/25 10:34:50;;;;;;;0.20;0.17;;;23.00;25.90;;;;;;5043958;28;20029;-56
2021/12/25 10:37:18;;;;;;;0.45;0.30;;;22.90;25.90;;;;;;5040002;28;20033;-55
2021/12/25 10:39:45;;;;;;;0.30;0.20;;;22.90;26.40;;;;;;5038692;28;20065;-54
2021/12/25 10:42:17;;;;;;;0.32;0.20;;;22.90;25.90;;;;;;5045771;28;20045;-53
2021/12/25 10:44:55;;;;;;;0.20;0.10;;;22.80;25.90;;;;;;5038587;28;20097;-52
2021/12/25 10:47:24;;;;;;;0.57;0.30;;;22.80;25.90;;;;;;5042833;28;20032;-57
2021/12/25 10:49:49;;;;;;;0.20;0.15;;;22.80;25.90;;;;;;5038592;28;20030;-57
2021/12/25 10:52:27;;;;;;;2.22;0.40;;;22.70;26.00;;;;;;5040712;28;20035;-56
2021/12/25 10:54:54;;;;;;;0.65;0.30;;;22.70;26.20;;;;;;5043557;28;20073;-57
2021/12/25 10:57:38;;;;;;;0.10;0.10;;;22.70;26.20;;;;;;5042627;28;20029;-57
2021/12/25 11:00:31;;;;;;;0.17;0.17;;;22.80;26.20;;;;;;5046488;28;20028;-54
2021/12/25 11:03:04;;;;;;;1.13;0.25;;;22.70;26.10;;;;;;5035776;28;20064;-56
2021/12/25 11:05:31;;;;;;;0.85;0.30;;;22.70;26.20;;;;;;5042656;28;20060;-57
2021/12/25 11:08:05;;;;;;;0.20;0.13;;;22.70;26.10;;;;;;5035316;28;20032;-60
2021/12/25 11:10:40;;;;;;;0.50;0.30;;;22.70;26.10;;;;;;5027302;28;20040;-58
2021/12/25 11:13:19;;;;;;;0.47;0.20;;;22.60;26.00;;;;;;5039557;28;20018;-63
2021/12/25 11:15:46;;;;;;;0.20;0.10;;;22.60;26.00;;;;;;5035853;28;20095;-56
2021/12/25 11:18:14;;;;;;;0.50;0.15;;;22.60;26.00;;;;;;5040811;28;20052;-57
2021/12/25 11:20:42;;;;;;;0.15;0.15;;;22.60;25.90;;;;;;5045060;28;20124;-56
2021/12/25 11:23:10;;;;;;;0.47;0.20;;;22.60;25.90;;;;;;5041283;28;20037;-54
2021/12/25 11:25:39;;;;;;;0.28;0.20;;;22.60;25.90;;;;;;5039949;28;20098;-60
2021/12/25 11:28:09;;;;;;;0.40;0.20;;;22.50;25.80;;;;;;5036244;28;20441;-57
2021/12/25 11:30:40;;;;;;;0.30;0.20;;;22.50;25.80;;;;;;5051010;28;20025;-55
2021/12/25 11:33:05;;;;;;;0.80;0.28;;;22.50;25.80;;;;;;5038890;28;20029;-54
2021/12/25 11:35:34;;;;;;;0.20;0.10;;;22.50;25.80;;;;;;5042591;28;20037;-56
2021/12/25 11:38:04;;;;;;;0.40;0.20;;;22.50;25.80;;;;;;5044760;28;20028;-59
2021/12/25 11:40:35;;;;;;;0.20;0.20;;;22.50;25.70;;;;;;5043917;28;20064;-57
2021/12/25 11:43:04;;;;;;;0.68;0.30;;;22.40;25.70;;;;;;5034495;28;20435;-57
2021/12/25 11:45:40;;;;;;;0.45;0.40;;;22.40;25.70;;;;;;5042241;28;20405;-57
2021/12/25 11:48:19;;;;;;;0.75;0.40;;;22.40;25.70;;;;;;5038009;28;20098;-56
2021/12/25 11:50:50;;;;;;;0.40;0.30;;;22.40;25.70;;;;;;5030674;28;20039;-58
2021/12/25 11:53:40;;;;;;;0.75;0.50;;;22.40;25.70;;;;;;5045239;28;20037;-61
2021/12/25 11:58:45;;;;;;;0.90;0.30;;;22.30;25.70;;;;;;5038786;28;20029;-62
2021/12/25 12:01:34;;;;;;;1.25;0.50;;;22.30;25.60;;;;;;5027661;28;20447;-60
2021/12/25 12:04:12;;;;;;;0.50;0.40;;;22.30;25.50;;;;;;5038671;28;20132;-61
2021/12/25 12:06:44;;;;;;;0.20;0.20;;;22.30;25.50;;;;;;5044476;28;20441;-60
2021/12/25 12:09:21;;;;;;;0.60;0.30;;;22.30;25.50;;;;;;5049116;28;20056;-60
2021/12/25 12:12:18;;;;;;;0.50;0.30;;;22.30;25.50;;;;;;5025835;28;20052;-59
2021/12/25 12:15:16;;;;;;;0.88;0.40;;;22.20;25.50;;;;;;5040859;28;20141;-61
2021/12/25 12:18:34;;;;;;;1.27;0.47;;;22.20;25.40;;;;;;5040852;28;20037;-56
2021/12/25 12:21:12;;;;;;;0.45;0.30;;;22.20;25.40;;;;;;5000791;28;20040;-60
2021/12/25 12:26:11;;;;;;;0.55;0.25;;;22.20;25.60;;;;;;5042319;28;20025;-57
2021/12/25 12:28:44;;;;;;;0.55;0.30;;;22.10;25.60;;;;;;5035020;28;20164;-57
2021/12/25 12:31:39;;;;;;;1.70;0.40;;;22.10;25.60;;;;;;5034170;28;20033;-55
2021/12/25 12:34:30;;;;;;;0.60;0.40;;;22.20;25.50;;;;;;5045287;28;20037;-57
2021/12/25 12:37:14;;;;;;;0.32;0.30;;;22.10;25.50;;;;;;5029646;28;20022;-55
2021/12/25 12:40:06;;;;;;;0.75;0.20;;;22.20;25.50;;;;;;5039873;28;20033;-57
2021/12/25 12:42:45;;;;;;;0.45;0.22;;;22.10;25.50;;;;;;5045517;28;20029;-59
2021/12/25 12:45:20;;;;;;;0.65;0.40;;;22.10;25.40;;;;;;5044690;28;20025;-58
2021/12/25 12:48:19;;;;;;;0.43;0.30;;;22.10;25.40;;;;;;5039686;28;20016;-57
2021/12/25 12:50:49;;;;;;;0.10;0.10;;;22.10;25.70;;;;;;5033849;28;20096;-60
2021/12/25 12:53:16;;;;;;;1.35;0.40;;;22.20;26.40;;;;;;5041361;28;20053;-59
2021/12/25 12:55:45;;;;;;;0.22;0.22;;;22.20;26.70;;;;;;5034729;28;20036;-56
2021/12/25 12:58:26;;;;;;;1.08;0.30;;;22.30;27.10;;;;;;5044393;28;20033;-56
2021/12/25 13:00:58;;;;;;;0.82;0.30;;;22.40;27.80;;;;;;5034577;28;20444;-58
2021/12/25 13:03:26;;;;;;;0.38;0.25;;;22.40;27.40;;;;;;5036020;28;20053;-58
2021/12/25 13:06:04;;;;;;;0.68;0.30;;;22.40;27.50;;;;;;5044742;28;20064;-55
2021/12/25 13:08:33;;;;;;;1.17;0.25;;;22.50;27.70;;;;;;5039202;28;20029;-60
2021/12/25 13:11:11;;;;;;;0.95;0.30;;;22.50;27.70;;;;;;5036122;28;20021;-57
2021/12/25 13:13:46;;;;;;;0.50;0.30;;;22.60;27.80;;;;;;5042649;28;20189;-59
2021/12/25 13:16:16;;;;;;;0.52;0.30;;;22.60;27.90;;;;;;5014129;28;20041;-59
2021/12/25 13:18:48;;;;;;;0.68;0.43;;;22.70;28.00;;;;;;5034482;28;20030;-60
2021/12/25 13:21:25;;;;;;;2.00;0.98;;;22.70;28.00;;;;;;5039037;28;20441;-58
2021/12/25 13:23:56;;;;;;;0.40;0.30;;;22.70;27.90;;;;;;5025035;28;20080;-59
2021/12/25 13:26:33;;;;;;;2.22;1.08;;;22.70;27.70;;;;;;5047823;28;20017;-55
2021/12/25 13:29:04;;;;;;;1.77;0.90;;;22.70;27.80;;;;;;5042606;28;20029;-53
2021/12/25 13:31:33;;;;;;;1.40;1.00;;;22.70;27.90;;;;;;5047132;28;20049;-56
2021/12/25 13:34:05;;;;;;;1.67;1.05;;;22.70;27.80;;;;;;5038672;28;20037;-57
2021/12/25 13:36:34;;;;;;;1.67;1.30;;;22.70;28.10;;;;;;5042962;28;20086;-56
2021/12/25 13:39:07;;;;;;;1.83;0.95;;;22.60;27.50;;;;;;5031103;28;20439;-59
2021/12/25 13:41:43;;;;;;;1.25;0.98;;;22.60;27.30;;;;;;5042918;28;20021;-58
2021/12/25 13:44:25;;;;;;;1.92;1.20;;;22.60;27.20;;;;;;5038626;28;20364;-58
2021/12/25 13:47:11;;;;;;;1.67;1.08;;;22.50;26.90;;;;;;5031317;28;20025;-57
2021/12/25 13:49:39;;;;;;;1.38;0.98;;;22.50;26.80;;;;;;5042566;28;20124;-54
2021/12/25 13:52:20;;;;;;;1.25;0.82;;;22.50;26.70;;;;;;5044234;28;20034;-59
2021/12/25 13:55:10;;;;;;;1.35;0.90;;;22.50;26.60;;;;;;5036457;28;20037;-56
2021/12/25 13:57:48;;;;;;;1.38;1.00;;;22.50;26.50;;;;;;5014053;28;20029;-58
2021/12/25 14:00:19;;;;;;;1.60;1.00;;;22.40;26.30;;;;;;5025570;28;20326;-60
2021/12/25 14:02:48;;;;;;;1.40;1.05;;;22.40;26.30;;;;;;5043400;28;20463;-58
2021/12/25 14:05:16;;;;;;;1.50;1.17;;;22.40;26.20;;;;;;5050047;28;20032;-53
2021/12/25 14:07:42;;;;;;;1.50;1.00;;;22.30;26.10;;;;;;5034510;28;20444;-57
2021/12/25 14:10:19;;;;;;;1.50;1.10;;;22.30;26.00;;;;;;5038203;28;20377;-59
2021/12/25 14:12:48;;;;;;;1.25;0.90;;;22.30;25.90;;;;;;5041729;28;20037;-57
2021/12/25 14:15:17;;;;;;;1.10;0.90;;;22.30;25.90;;;;;;5054036;28;20049;-58
2021/12/25 14:17:44;;;;;;;1.88;1.05;;;22.30;25.80;;;;;;5044027;28;20032;-56
2021/12/25 14:20:23;;;;;;;1.13;0.93;;;22.30;25.70;;;;;;5049026;28;20025;-58
2021/12/25 14:22:58;;;;;;;1.15;0.93;;;22.20;25.60;;;;;;5041220;28;20033;-57
2021/12/25 14:25:29;;;;;;;1.30;1.10;;;22.20;25.50;;;;;;5048208;28;20033;-58
2021/12/25 14:28:16;;;;;;;1.35;1.10;;;22.20;25.50;;;;;;5040087;28;20032;-56
2021/12/25 14:31:07;;;;;;;2.05;1.20;;;22.20;25.40;;;;;;5044641;28;20035;-57
2021/12/25 14:33:39;;;;;;;2.03;1.20;;;22.20;25.40;;;;;;5042187;28;20022;-57
2021/12/25 14:36:10;;;;;;;1.40;0.90;;;22.10;25.30;;;;;;5047019;28;20459;-55
2021/12/25 14:38:42;;;;;;;1.83;1.15;;;22.10;25.30;;;;;;5035743;28;20056;-57
2021/12/25 14:41:11;;;;;;;2.30;1.35;;;22.10;25.20;;;;;;5044504;28;20321;-54